Terminal Aerodrome Forecast
Issued by NWS

Home | Current Version | Previous Version | Text Only | Print | Product List | Glossary On
Versions: 1 2 3 4 5 6 7 8 9 10 11 12 13 14 15 16 17
000
FTUS43 KDTX 262320
TAFMBS
TAF
KMBS 262320Z 2700/2724 36007KT P6SM SCT035
     FM270400 33003KT P6SM SKC
     FM271200 25007KT P6SM SCT035=

USA.gov is the U.S. government's official web portal to all federal, state and local government web resources and services.